Terminal Aerodrome Forecast
Issued by NWS

Home | Current Version | Previous Version | Text Only | Print | Product List | Glossary On
Versions: 1 2 3 4 5 6 7 8 9 10 11 12
000
FTUS42 TJSJ 232329
TAFKPK
TAF
TKPK 232329Z 2400/2424 16003KT P6SM FEW022
     FM240400 12003KT P6SM VCSH SCT018
     FM241400 14008KT P6SM FEW020 FEW040
     FM242200 12004KT P6SM VCSH SCT018 SCT040
      AMD NOT SKED 2402/2411=

USA.gov is the U.S. government's official web portal to all federal, state and local government web resources and services.